createdAt,value
2024-02-29T00:00:05.914Z,95329.00
2024-02-29T00:01:06.031Z,95329.00
2024-02-29T00:02:05.915Z,95329.00
2024-02-29T00:03:05.913Z,95330.00
2024-02-29T00:04:06.027Z,95330.00
2024-02-29T00:56:05.200Z,95288.00
2024-02-29T00:57:06.182Z,95289.00
2024-02-29T00:58:06.221Z,95287.00
2024-02-29T00:59:06.205Z,95286.00
2024-02-29T01:00:06.233Z,95287.00
2024-02-29T01:01:06.217Z,95284.00
2024-02-29T01:02:06.221Z,95282.00
2024-02-29T01:03:06.194Z,95281.00
2024-02-29T01:04:06.216Z,95280.00
2024-02-29T01:05:06.221Z,95279.00
2024-02-29T01:06:06.195Z,95277.00
2024-02-29T01:07:06.257Z,95277.00
2024-02-29T01:08:06.201Z,95277.00
2024-02-29T01:09:06.239Z,95274.00
2024-02-29T01:10:06.289Z,95272.00
2024-02-29T01:11:06.221Z,95274.00
2024-02-29T01:12:06.321Z,95273.00
2024-02-29T01:13:06.293Z,95272.00
2024-02-29T01:14:06.243Z,95271.00
2024-02-29T01:15:06.234Z,95269.00
2024-02-29T01:16:06.386Z,95269.00
2024-02-29T01:17:06.207Z,95264.00
2024-02-29T01:18:06.239Z,95263.00
2024-02-29T01:19:06.274Z,95262.00
2024-02-29T01:20:06.213Z,95259.00
2024-02-29T01:21:06.228Z,95256.00
2024-02-29T01:22:06.280Z,95253.00
2024-02-29T01:23:06.223Z,95253.00
2024-02-29T01:24:06.236Z,95250.00
2024-02-29T01:25:06.280Z,95251.00
2024-02-29T01:26:06.219Z,95250.00
2024-02-29T01:27:06.226Z,95248.00
2024-02-29T01:28:06.283Z,95249.00
2024-02-29T01:29:06.226Z,95248.00
2024-02-29T01:30:06.225Z,95250.00
2024-02-29T01:31:06.248Z,95251.00
2024-02-29T01:32:15.501Z,95249.00
2024-02-29T01:33:06.256Z,95250.00
2024-02-29T01:34:06.273Z,95247.00
2024-02-29T01:35:06.240Z,95247.00
2024-02-29T01:36:06.243Z,95247.00
2024-02-29T01:37:06.280Z,95246.00
2024-02-29T01:38:06.236Z,95242.00
2024-02-29T01:39:06.254Z,95240.00
2024-02-29T01:40:06.324Z,95239.00
2024-02-29T01:41:06.238Z,95241.00
2024-02-29T01:42:06.241Z,95240.00
2024-02-29T01:43:06.265Z,95238.00
2024-02-29T01:44:06.281Z,95237.00
2024-02-29T01:45:06.243Z,95235.00
2024-02-29T01:46:06.300Z,95235.00
2024-02-29T01:47:06.242Z,95235.00
2024-02-29T01:48:06.290Z,95235.00
2024-02-29T01:49:06.323Z,95233.00
2024-02-29T01:50:06.251Z,95232.00
2024-02-29T01:51:06.252Z,95230.00
2024-02-29T01:52:06.347Z,95226.00
2024-02-29T01:53:06.254Z,95228.00
2024-02-29T01:54:06.261Z,95226.00
2024-02-29T01:55:06.325Z,95225.00
2024-02-29T01:56:06.266Z,95226.00
2024-02-29T01:57:06.257Z,95226.00
2024-02-29T01:58:06.294Z,95225.00
2024-02-29T01:59:06.266Z,95224.00
2024-02-29T02:00:06.876Z,95222.00
2024-02-29T02:01:06.347Z,95222.00
2024-02-29T02:02:06.263Z,95220.00
2024-02-29T02:03:06.266Z,95221.00
2024-02-29T02:04:06.344Z,95221.00
2024-02-29T02:05:06.272Z,95221.00
2024-02-29T02:06:06.292Z,95220.00
2024-02-29T02:07:06.431Z,95219.00
2024-02-29T02:08:06.278Z,95217.00
2024-02-29T02:09:06.312Z,95214.00
2024-02-29T02:10:06.300Z,95216.00
2024-02-29T02:11:06.340Z,95215.00
2024-02-29T02:12:06.297Z,95215.00
2024-02-29T02:13:06.359Z,95214.00
2024-02-29T02:14:06.286Z,95212.00
2024-02-29T02:15:06.294Z,95212.00
2024-02-29T02:16:06.392Z,95212.00
2024-02-29T02:17:06.293Z,95212.00
2024-02-29T02:18:06.324Z,95210.00
2024-02-29T02:19:06.413Z,95213.00
2024-02-29T02:20:06.300Z,95211.00
2024-02-29T02:21:06.295Z,95212.00
2024-02-29T02:22:06.432Z,95211.00
2024-02-29T02:23:06.292Z,95211.00
2024-02-29T02:24:06.299Z,95211.00
2024-02-29T02:25:06.325Z,95208.00
2024-02-29T02:26:06.299Z,95209.00
2024-02-29T02:27:06.315Z,95204.00
2024-02-29T02:28:06.356Z,95204.00
2024-02-29T02:29:06.338Z,95203.00
2024-02-29T02:30:06.310Z,95201.00
2024-02-29T02:31:06.364Z,95200.00
2024-02-29T02:32:06.334Z,95200.00
2024-02-29T02:33:06.345Z,95199.00
2024-02-29T02:34:06.376Z,95198.00
2024-02-29T02:35:06.320Z,95200.00
2024-02-29T02:36:06.330Z,95202.00
2024-02-29T02:37:06.358Z,95201.00
2024-02-29T02:38:06.312Z,95202.00
2024-02-29T02:39:06.313Z,95197.00
2024-02-29T02:41:05.326Z,95196.00
2024-02-29T02:42:06.323Z,95196.00
2024-02-29T02:44:05.339Z,95195.00
2024-02-29T02:45:06.324Z,95195.00
2024-02-29T02:46:06.336Z,95192.00
2024-02-29T02:47:06.336Z,95192.00
2024-02-29T02:48:06.504Z,95192.00
2024-02-29T02:49:06.452Z,95192.00
2024-02-29T02:50:06.359Z,95192.00
2024-02-29T02:51:06.337Z,95191.00
2024-02-29T02:52:06.354Z,95191.00
2024-02-29T02:53:06.346Z,95193.00
2024-02-29T02:54:06.339Z,95193.00
2024-02-29T02:55:06.427Z,95192.00
2024-02-29T02:56:06.353Z,95191.00
2024-02-29T02:57:06.345Z,95191.00
2024-02-29T02:58:06.379Z,95190.00
2024-02-29T02:59:06.355Z,95190.00
2024-02-29T03:00:06.386Z,95189.00
2024-02-29T03:01:06.431Z,95188.00
2024-02-29T03:02:06.458Z,95185.00
2024-02-29T03:03:06.433Z,95183.00
2024-02-29T03:04:06.510Z,95180.00
2024-02-29T03:05:06.474Z,95181.00
2024-02-29T03:06:06.480Z,95179.00
2024-02-29T03:07:06.548Z,95179.00
2024-02-29T03:08:06.516Z,95177.00
2024-02-29T03:09:06.998Z,95177.00
2024-02-29T03:10:06.624Z,95176.00
2024-02-29T03:11:06.605Z,95175.00
2024-02-29T03:12:06.624Z,95176.00
2024-02-29T03:13:06.634Z,95173.00
2024-02-29T03:14:06.621Z,95171.00
2024-02-29T03:15:06.680Z,95172.00
2024-02-29T03:16:06.754Z,95171.00
2024-02-29T03:17:06.681Z,95172.00
2024-02-29T03:18:06.774Z,95171.00
2024-02-29T03:19:06.789Z,95169.00
2024-02-29T03:20:06.822Z,95171.00
2024-02-29T03:21:06.834Z,95168.00
2024-02-29T03:22:06.976Z,95167.00
2024-02-29T03:23:06.924Z,95169.00
2024-02-29T03:24:06.972Z,95166.00
2024-02-29T03:25:07.070Z,95166.00
2024-02-29T03:26:07.075Z,95168.00
2024-02-29T03:27:07.128Z,95164.00
2024-02-29T03:28:07.255Z,95167.00
2024-02-29T03:29:07.225Z,95164.00
2024-02-29T03:30:07.260Z,95166.00
2024-02-29T03:31:07.345Z,95162.00
2024-02-29T03:32:07.361Z,95164.00
2024-02-29T03:33:07.443Z,95163.00
2024-02-29T03:34:07.511Z,95161.00
2024-02-29T03:35:07.494Z,95162.00
2024-02-29T03:36:07.568Z,95161.00
2024-02-29T03:37:07.656Z,95161.00
2024-02-29T03:38:07.653Z,95162.00
2024-02-29T03:39:07.681Z,95163.00
2024-02-29T03:40:07.814Z,95162.00
2024-02-29T03:41:08.047Z,95161.00
2024-02-29T03:42:07.852Z,95160.00
2024-02-29T03:43:07.900Z,95160.00
2024-02-29T03:44:07.917Z,95160.00
2024-02-29T03:45:07.981Z,95156.00
2024-02-29T03:46:08.071Z,95155.00
2024-02-29T03:47:08.061Z,95153.00
2024-02-29T03:48:08.157Z,95154.00
2024-02-29T03:49:08.221Z,95152.00
2024-02-29T03:50:08.213Z,95149.00
2024-02-29T03:51:08.255Z,95148.00
2024-02-29T03:52:08.413Z,95149.00
2024-02-29T03:53:08.388Z,95149.00
2024-02-29T03:54:08.414Z,95149.00
2024-02-29T03:55:08.549Z,95147.00
2024-02-29T03:56:08.529Z,95148.00
2024-02-29T03:57:08.570Z,95152.00
2024-02-29T03:58:08.647Z,95150.00
2024-02-29T03:59:08.678Z,95150.00
2024-02-29T04:00:08.728Z,95150.00
2024-02-29T04:01:08.820Z,95149.00
2024-02-29T04:02:08.816Z,95148.00
2024-02-29T04:03:08.859Z,95150.00
2024-02-29T04:04:09.015Z,95146.00
2024-02-29T04:05:08.968Z,95148.00
2024-02-29T04:06:09.021Z,95147.00
2024-02-29T04:07:09.208Z,95146.00
2024-02-29T04:08:09.148Z,95146.00
2024-02-29T04:09:09.183Z,95146.00
2024-02-29T04:10:09.330Z,95146.00
2024-02-29T04:11:09.321Z,95147.00
2024-02-29T04:12:09.349Z,95146.00
2024-02-29T04:13:09.472Z,95146.00
2024-02-29T04:14:09.450Z,95146.00
2024-02-29T04:15:09.508Z,95144.00
2024-02-29T04:16:09.601Z,95142.00
2024-02-29T04:17:09.613Z,95142.00
2024-02-29T04:18:09.713Z,95142.00
2024-02-29T04:19:09.801Z,95140.00
2024-02-29T04:20:09.998Z,95138.00
2024-02-29T04:21:09.814Z,95140.00
2024-02-29T04:22:09.922Z,95139.00
2024-02-29T04:23:09.959Z,95138.00
2024-02-29T04:24:09.992Z,95138.00
2024-02-29T04:25:10.136Z,95137.00
2024-02-29T04:26:10.076Z,95138.00
2024-02-29T04:27:10.154Z,95137.00
2024-02-29T04:28:10.225Z,95138.00
2024-02-29T04:29:10.205Z,95137.00
2024-02-29T04:30:10.218Z,95137.00
2024-02-29T04:31:10.294Z,95137.00
2024-02-29T04:32:10.253Z,95134.00
2024-02-29T04:33:10.294Z,95135.00
2024-02-29T04:34:10.374Z,95136.00
2024-02-29T04:35:10.326Z,95136.00
2024-02-29T04:36:10.315Z,95137.00
2024-02-29T04:37:10.344Z,95135.00
2024-02-29T04:38:10.340Z,95136.00
2024-02-29T04:39:10.344Z,95137.00
2024-02-29T04:40:11.530Z,95137.00
2024-02-29T04:41:10.460Z,95137.00
2024-02-29T04:42:17.640Z,95135.00
2024-02-29T04:43:18.681Z,95136.00
2024-02-29T04:44:18.645Z,95135.00
2024-02-29T04:45:18.638Z,95136.00
2024-02-29T04:46:18.716Z,95134.00
2024-02-29T04:47:18.640Z,95132.00
2024-02-29T04:48:18.660Z,95130.00
2024-02-29T04:49:18.718Z,95133.00
2024-02-29T04:50:18.661Z,95131.00
2024-02-29T04:51:18.642Z,95131.00
2024-02-29T04:52:18.663Z,95131.00
2024-02-29T04:53:18.654Z,95134.00
2024-02-29T04:54:18.650Z,95135.00
2024-02-29T04:55:18.793Z,95136.00
2024-02-29T04:56:18.662Z,95134.00
2024-02-29T04:57:18.658Z,95132.00
2024-02-29T04:58:18.732Z,95133.00
2024-02-29T04:59:18.659Z,95133.00
2024-02-29T05:00:18.649Z,95133.00
2024-02-29T05:01:18.903Z,95132.00
2024-02-29T05:02:18.662Z,95130.00
2024-02-29T05:03:18.658Z,95130.00
2024-02-29T05:04:18.698Z,95129.00
2024-02-29T05:05:18.655Z,95128.00
2024-02-29T05:06:18.670Z,95128.00
2024-02-29T05:07:18.810Z,95127.00
2024-02-29T05:08:18.671Z,95125.00
2024-02-29T05:09:18.697Z,95126.00
2024-02-29T05:10:18.732Z,95123.00
2024-02-29T05:11:18.730Z,95124.00
2024-02-29T05:12:18.668Z,95123.00
2024-02-29T05:13:18.721Z,95125.00
2024-02-29T05:14:18.682Z,95128.00
2024-02-29T05:15:18.673Z,95128.00
2024-02-29T05:16:18.729Z,95128.00
2024-02-29T05:17:18.681Z,95125.00
2024-02-29T05:18:18.681Z,95122.00
2024-02-29T05:19:18.743Z,95124.00
2024-02-29T05:20:18.679Z,95123.00
2024-02-29T05:21:18.692Z,95126.00
2024-02-29T05:22:18.775Z,95126.00
2024-02-29T05:23:18.696Z,95126.00
2024-02-29T05:24:18.704Z,95130.00
2024-02-29T05:25:18.747Z,95130.00
2024-02-29T05:26:18.694Z,95130.00
2024-02-29T05:27:18.741Z,95133.00
2024-02-29T05:28:18.781Z,95132.00
2024-02-29T05:29:18.752Z,95128.00
2024-02-29T05:30:18.714Z,95127.00
2024-02-29T05:31:18.747Z,95130.00
2024-02-29T05:32:19.264Z,95131.00
2024-02-29T05:33:18.723Z,95130.00
2024-02-29T05:34:18.827Z,95129.00
2024-02-29T05:35:18.716Z,95127.00
2024-02-29T05:36:18.740Z,95131.00
2024-02-29T05:37:18.862Z,95131.00
2024-02-29T05:38:18.724Z,95125.00
2024-02-29T05:39:18.729Z,95124.00
2024-02-29T05:40:18.793Z,95123.00
2024-02-29T05:41:18.861Z,95125.00
2024-02-29T05:42:18.739Z,95123.00
2024-02-29T05:43:18.821Z,95122.00
2024-02-29T05:44:18.736Z,95120.00
2024-02-29T05:45:18.735Z,95119.00
2024-02-29T05:46:18.813Z,95119.00
2024-02-29T05:47:18.758Z,95117.00
2024-02-29T05:48:18.746Z,95120.00
2024-02-29T05:49:18.882Z,95120.00
2024-02-29T05:50:18.793Z,95121.00
2024-02-29T05:51:18.820Z,95123.00
2024-02-29T05:52:18.958Z,95120.00
2024-02-29T05:53:18.889Z,95119.00
2024-02-29T05:54:18.941Z,95119.00
2024-02-29T05:55:19.171Z,95117.00
2024-02-29T05:56:18.992Z,95118.00
2024-02-29T05:57:19.028Z,95114.00
2024-02-29T05:58:19.152Z,95115.00
2024-02-29T05:59:19.089Z,95115.00
2024-02-29T06:00:19.073Z,95116.00
2024-02-29T06:01:19.277Z,95117.00
2024-02-29T06:02:19.093Z,95118.00
2024-02-29T06:03:19.091Z,95118.00
2024-02-29T06:04:19.306Z,95116.00
2024-02-29T06:05:19.115Z,95117.00
2024-02-29T06:06:19.139Z,95118.00
2024-02-29T06:07:19.169Z,95119.00
2024-02-29T06:08:19.172Z,95121.00
2024-02-29T06:09:19.174Z,95118.00
2024-02-29T06:10:19.296Z,95121.00
2024-02-29T06:11:19.267Z,95119.00
2024-02-29T06:12:19.200Z,95118.00
2024-02-29T06:13:19.376Z,95120.00
2024-02-29T06:14:19.230Z,95121.00
2024-02-29T06:15:19.272Z,95118.00
2024-02-29T06:16:19.308Z,95118.00
2024-02-29T06:17:19.266Z,95119.00
2024-02-29T06:18:19.273Z,95121.00
2024-02-29T06:19:19.314Z,95120.00
2024-02-29T06:20:19.300Z,95123.00
2024-02-29T06:21:19.308Z,95124.00
2024-02-29T06:22:19.425Z,95122.00
2024-02-29T06:23:19.326Z,95124.00
2024-02-29T06:24:20.125Z,95125.00
2024-02-29T06:25:19.890Z,95127.00
2024-02-29T06:26:19.358Z,95122.00
2024-02-29T06:27:19.367Z,95124.00
2024-02-29T06:28:22.954Z,95124.00
2024-02-29T06:29:19.378Z,95123.00
2024-02-29T06:30:19.378Z,95127.00
2024-02-29T06:31:19.469Z,95128.00
2024-02-29T06:32:19.379Z,95130.00
2024-02-29T06:33:19.382Z,95130.00
2024-02-29T06:34:19.489Z,95127.00
2024-02-29T06:35:19.390Z,95129.00
2024-02-29T06:36:19.384Z,95128.00
2024-02-29T06:37:19.887Z,95127.00
2024-02-29T06:38:19.382Z,95127.00
2024-02-29T06:39:19.397Z,95126.00
2024-02-29T06:40:19.511Z,95124.00
2024-02-29T06:41:19.392Z,95126.00
2024-02-29T06:42:19.393Z,95129.00
2024-02-29T06:43:19.962Z,95128.00
2024-02-29T06:44:19.702Z,95130.00
2024-02-29T06:45:19.786Z,95130.00
2024-02-29T06:46:19.566Z,95131.00
2024-02-29T06:47:19.430Z,95135.00
2024-02-29T06:48:19.402Z,95131.00
2024-02-29T06:49:19.491Z,95130.00
2024-02-29T06:50:19.802Z,95126.00
2024-02-29T06:51:19.435Z,95124.00
2024-02-29T06:52:19.582Z,95123.00
2024-02-29T06:53:19.424Z,95123.00
2024-02-29T06:54:19.800Z,95121.00
2024-02-29T06:55:19.928Z,95121.00
2024-02-29T06:56:19.425Z,95122.00
2024-02-29T06:57:19.427Z,95121.00
2024-02-29T06:58:19.858Z,95122.00
2024-02-29T06:59:20.474Z,95123.00
2024-02-29T07:00:26.850Z,95125.00
2024-02-29T07:01:19.513Z,95129.00
2024-02-29T07:02:19.477Z,95128.00
2024-02-29T07:03:23.055Z,95127.00
2024-02-29T07:04:19.586Z,95129.00
2024-02-29T07:05:19.484Z,95129.00
2024-02-29T07:06:19.838Z,95129.00
2024-02-29T07:07:19.538Z,95131.00
2024-02-29T07:08:22.695Z,95129.00
2024-02-29T07:09:19.653Z,95128.00
2024-02-29T07:10:19.673Z,95128.00
2024-02-29T07:11:19.636Z,95125.00
2024-02-29T07:12:19.704Z,95124.00
2024-02-29T07:13:20.120Z,95125.00
2024-02-29T07:14:19.608Z,95123.00
2024-02-29T07:15:19.968Z,95125.00
2024-02-29T07:16:19.782Z,95122.00
2024-02-29T07:17:20.063Z,95122.00
2024-02-29T07:18:19.549Z,95122.00
2024-02-29T07:19:19.681Z,95122.00
2024-02-29T07:20:19.542Z,95122.00
2024-02-29T07:21:19.511Z,95121.00
2024-02-29T07:22:19.749Z,95119.00
2024-02-29T07:23:19.610Z,95120.00
2024-02-29T07:24:20.441Z,95121.00
2024-02-29T07:25:20.076Z,95124.00
2024-02-29T07:26:19.547Z,95122.00
2024-02-29T07:27:19.593Z,95119.00
2024-02-29T07:28:20.163Z,95117.00
2024-02-29T07:29:19.903Z,95114.00
2024-02-29T07:30:19.949Z,95114.00
2024-02-29T07:31:19.972Z,95112.00
2024-02-29T07:32:20.060Z,95111.00
2024-02-29T07:33:20.368Z,95109.00
2024-02-29T07:34:20.760Z,95107.00
2024-02-29T07:35:20.274Z,95106.00
2024-02-29T07:36:20.048Z,95104.00
2024-02-29T07:37:20.447Z,95107.00
2024-02-29T07:38:20.428Z,95105.00
2024-02-29T07:39:20.047Z,95104.00
2024-02-29T07:40:20.434Z,95099.00
2024-02-29T07:41:27.531Z,95096.00
2024-02-29T07:42:20.944Z,95095.00
2024-02-29T07:43:20.389Z,95092.00
2024-02-29T07:44:20.647Z,95093.00
2024-02-29T07:45:21.088Z,95094.00
2024-02-29T07:46:20.695Z,95092.00
2024-02-29T07:47:20.621Z,95089.00
2024-02-29T07:48:20.575Z,95088.00
2024-02-29T07:49:20.611Z,95089.00
2024-02-29T07:50:20.416Z,95090.00
2024-02-29T07:51:20.785Z,95091.00
2024-02-29T07:52:20.449Z,95090.00
2024-02-29T07:53:20.654Z,95087.00
2024-02-29T07:54:20.430Z,95088.00
2024-02-29T07:55:20.522Z,95085.00
2024-02-29T07:56:20.712Z,95081.00
2024-02-29T07:57:20.490Z,95083.00
2024-02-29T07:58:20.630Z,95081.00
2024-02-29T07:59:20.926Z,95079.00
2024-02-29T08:00:20.440Z,95077.00
2024-02-29T08:01:20.914Z,95074.00
2024-02-29T08:02:22.502Z,95075.00
2024-02-29T08:03:20.816Z,95072.00
2024-02-29T08:04:20.820Z,95072.00
2024-02-29T08:05:20.701Z,95068.00
2024-02-29T08:06:20.895Z,95070.00
2024-02-29T08:07:20.951Z,95070.00
2024-02-29T08:08:20.973Z,95068.00
2024-02-29T08:09:20.841Z,95064.00
2024-02-29T08:10:20.894Z,95061.00
2024-02-29T08:11:20.901Z,95061.00
2024-02-29T08:12:20.713Z,95056.00
2024-02-29T08:13:21.032Z,95055.00
2024-02-29T08:14:21.316Z,95052.00
2024-02-29T08:15:20.845Z,95049.00
2024-02-29T08:16:20.838Z,95047.00
2024-02-29T08:17:20.793Z,95047.00
2024-02-29T08:18:20.850Z,95049.00
2024-02-29T08:19:20.912Z,95048.00
2024-02-29T08:20:20.404Z,95050.00
2024-02-29T08:21:20.470Z,95049.00
2024-02-29T08:22:20.574Z,95048.00
2024-02-29T08:23:20.887Z,95047.00
2024-02-29T08:24:20.690Z,95043.00
2024-02-29T08:25:20.862Z,95042.00
2024-02-29T08:26:20.822Z,95037.00
2024-02-29T08:27:20.915Z,95032.00
2024-02-29T08:28:21.716Z,95035.00
2024-02-29T08:29:21.263Z,95033.00
2024-02-29T08:30:21.654Z,95030.00
2024-02-29T08:31:21.195Z,95030.00
2024-02-29T08:32:21.282Z,95027.00
2024-02-29T08:33:21.395Z,95025.00
2024-02-29T08:34:21.404Z,95027.00
2024-02-29T08:35:21.838Z,95023.00
2024-02-29T08:36:21.474Z,95024.00
2024-02-29T08:37:21.681Z,95023.00
2024-02-29T08:38:21.616Z,95022.00
2024-02-29T08:44:24.137Z,95016.00
2024-02-29T08:45:22.976Z,95015.00
2024-02-29T08:46:21.760Z,95016.00
2024-02-29T08:47:21.851Z,95012.00
2024-02-29T08:48:21.845Z,95012.00
2024-02-29T08:49:22.413Z,95010.00
2024-02-29T08:50:22.370Z,95009.00
2024-02-29T08:51:22.000Z,95008.00
2024-02-29T08:52:22.114Z,95003.00
2024-02-29T08:53:22.349Z,95003.00
2024-02-29T08:54:22.156Z,95000.00
2024-02-29T08:55:22.385Z,94998.00
2024-02-29T08:56:22.237Z,94994.00
2024-02-29T08:57:22.304Z,94993.00
2024-02-29T08:58:22.386Z,94992.00
2024-02-29T08:59:22.406Z,94987.00
2024-02-29T09:00:22.873Z,94985.00
2024-02-29T09:01:22.611Z,94985.00
2024-02-29T09:02:23.606Z,94982.00
2024-02-29T09:03:22.653Z,94980.00
2024-02-29T09:04:22.737Z,94976.00
2024-02-29T09:05:22.847Z,94973.00
2024-02-29T09:06:22.836Z,94969.00
2024-02-29T09:07:23.013Z,94970.00
2024-02-29T09:08:23.123Z,94966.00
2024-02-29T09:09:23.368Z,94967.00
2024-02-29T09:10:23.274Z,94960.00
2024-02-29T09:11:23.222Z,94960.00
2024-02-29T09:12:23.247Z,94957.00
2024-02-29T09:13:30.387Z,94955.00
2024-02-29T09:14:23.333Z,94956.00
2024-02-29T09:15:23.355Z,94956.00
2024-02-29T09:16:23.491Z,94953.00
2024-02-29T09:17:23.337Z,94956.00
2024-02-29T09:18:23.332Z,94954.00
2024-02-29T09:19:23.586Z,94959.00
2024-02-29T09:20:23.346Z,94955.00
2024-02-29T09:21:23.338Z,94954.00
2024-02-29T09:22:23.348Z,94953.00
2024-02-29T09:23:23.334Z,94950.00
2024-02-29T09:24:23.329Z,94952.00
2024-02-29T09:25:23.342Z,94950.00
2024-02-29T09:26:23.330Z,94950.00
2024-02-29T09:27:23.339Z,94948.00
2024-02-29T09:28:23.381Z,94948.00
2024-02-29T09:29:26.632Z,94946.00
2024-02-29T09:30:23.375Z,94944.00
2024-02-29T09:31:26.616Z,94943.00
2024-02-29T09:32:23.347Z,94942.00
2024-02-29T09:33:23.340Z,94940.00
2024-02-29T09:34:23.458Z,94940.00
2024-02-29T09:35:23.351Z,94939.00
2024-02-29T09:36:23.373Z,94939.00
2024-02-29T09:37:23.430Z,94937.00
2024-02-29T09:38:23.369Z,94935.00
2024-02-29T09:39:23.363Z,94934.00
2024-02-29T09:40:23.954Z,94934.00
2024-02-29T09:41:40.765Z,94929.00
2024-02-29T09:42:23.390Z,94929.00
2024-02-29T09:43:23.434Z,94928.00
2024-02-29T09:44:23.870Z,94927.00
2024-02-29T09:45:25.311Z,94924.00
2024-02-29T09:46:23.395Z,94919.00
2024-02-29T09:47:23.402Z,94924.00
2024-02-29T09:48:23.375Z,94919.00
2024-02-29T09:49:23.370Z,94916.00
2024-02-29T09:50:24.485Z,94913.00
2024-02-29T09:51:23.878Z,94910.00
2024-02-29T09:52:23.573Z,94906.00
2024-02-29T09:53:23.502Z,94902.00
2024-02-29T09:54:23.380Z,94901.00
2024-02-29T09:55:23.404Z,94899.00
2024-02-29T09:56:23.400Z,94899.00
2024-02-29T09:57:23.384Z,94896.00
2024-02-29T09:58:23.474Z,94899.00
2024-02-29T09:59:23.453Z,94895.00
2024-02-29T10:00:23.470Z,94896.00
2024-02-29T10:01:24.326Z,94890.00
2024-02-29T10:02:23.526Z,94891.00
2024-02-29T10:03:23.515Z,94891.00
2024-02-29T10:04:23.538Z,94889.00
2024-02-29T10:05:23.500Z,94887.00
2024-02-29T10:06:23.529Z,94886.00
2024-02-29T10:07:23.624Z,94881.00
2024-02-29T10:08:23.554Z,94882.00
2024-02-29T10:09:23.563Z,94879.00
2024-02-29T10:10:23.995Z,94876.00
2024-02-29T10:11:23.671Z,94874.00
2024-02-29T10:12:23.670Z,94873.00
2024-02-29T10:13:23.712Z,94875.00
2024-02-29T10:14:23.719Z,94872.00
2024-02-29T10:15:23.890Z,94872.00
2024-02-29T10:16:26.097Z,94871.00
2024-02-29T10:17:23.765Z,94870.00
2024-02-29T10:18:23.771Z,94868.00
2024-02-29T10:19:24.176Z,94868.00
2024-02-29T10:20:39.358Z,94868.00
2024-02-29T10:21:23.892Z,94868.00
2024-02-29T10:22:23.853Z,94866.00
2024-02-29T10:23:23.778Z,94865.00
2024-02-29T10:24:23.778Z,94864.00
2024-02-29T10:25:23.937Z,94864.00
2024-02-29T10:26:23.782Z,94861.00
2024-02-29T10:27:23.797Z,94857.00
2024-02-29T10:28:23.861Z,94857.00
2024-02-29T10:29:25.081Z,94855.00
2024-02-29T10:30:23.932Z,94852.00
2024-02-29T10:31:23.869Z,94849.00
2024-02-29T10:32:23.889Z,94850.00
2024-02-29T10:33:23.921Z,94846.00
2024-02-29T10:34:23.978Z,94845.00
2024-02-29T10:35:23.938Z,94845.00
2024-02-29T10:36:23.802Z,94843.00
2024-02-29T10:37:23.945Z,94843.00
2024-02-29T10:38:23.808Z,94841.00
2024-02-29T10:39:23.895Z,94842.00
2024-02-29T10:40:24.002Z,94838.00
2024-02-29T10:41:23.802Z,94836.00
2024-02-29T10:42:23.813Z,94835.00
2024-02-29T10:43:23.887Z,94834.00
2024-02-29T10:44:23.819Z,94834.00
2024-02-29T10:45:26.703Z,94833.00
2024-02-29T10:46:24.880Z,94832.00
2024-02-29T10:47:23.850Z,94831.00
2024-02-29T10:48:23.895Z,94828.00
2024-02-29T10:49:23.923Z,94824.00
2024-02-29T10:50:23.853Z,94825.00
2024-02-29T10:51:27.179Z,94820.00
2024-02-29T10:52:23.911Z,94819.00
2024-02-29T10:53:23.838Z,94819.00
2024-02-29T10:54:23.904Z,94818.00
2024-02-29T10:55:23.878Z,94817.00
2024-02-29T10:56:23.863Z,94814.00
2024-02-29T10:57:23.830Z,94813.00
2024-02-29T10:58:23.939Z,94813.00
2024-02-29T10:59:23.834Z,94814.00
2024-02-29T11:00:23.849Z,94814.00
2024-02-29T11:01:23.951Z,94814.00
2024-02-29T11:02:23.842Z,94814.00
2024-02-29T11:03:23.920Z,94812.00
2024-02-29T11:04:23.911Z,94812.00
2024-02-29T11:05:23.921Z,94811.00
2024-02-29T11:06:23.841Z,94809.00
2024-02-29T11:07:23.964Z,94806.00
2024-02-29T11:08:23.839Z,94803.00
2024-02-29T11:09:27.292Z,94804.00
2024-02-29T11:10:23.902Z,94802.00
2024-02-29T11:11:23.996Z,94799.00
2024-02-29T11:12:23.899Z,94797.00
2024-02-29T11:13:23.917Z,94794.00
2024-02-29T11:14:23.852Z,94795.00
2024-02-29T11:15:25.077Z,94792.00
2024-02-29T11:16:24.047Z,94789.00
2024-02-29T11:17:24.479Z,94791.00
2024-02-29T11:18:23.922Z,94788.00
2024-02-29T11:19:24.548Z,94786.00
2024-02-29T11:20:24.462Z,94782.00
2024-02-29T11:21:23.909Z,94780.00
2024-02-29T11:22:23.958Z,94780.00
2024-02-29T11:23:23.937Z,94778.00
2024-02-29T11:24:24.051Z,94775.00
2024-02-29T11:25:24.553Z,94769.00
2024-02-29T11:26:24.403Z,94770.00
2024-02-29T11:27:23.924Z,94769.00
2024-02-29T11:28:24.339Z,94766.00
2024-02-29T11:29:23.977Z,94767.00
2024-02-29T11:30:24.526Z,94766.00
2024-02-29T11:31:23.948Z,94763.00
2024-02-29T11:32:23.930Z,94759.00
2024-02-29T11:33:23.974Z,94758.00
2024-02-29T11:34:23.949Z,94754.00
2024-02-29T11:35:24.417Z,94753.00
2024-02-29T11:36:23.920Z,94753.00
2024-02-29T11:37:26.699Z,94750.00
2024-02-29T11:38:29.261Z,94745.00
2024-02-29T11:39:24.044Z,94743.00
2024-02-29T11:40:23.996Z,94738.00
2024-02-29T11:41:23.946Z,94734.00
2024-02-29T11:42:23.943Z,94735.00
2024-02-29T11:43:26.106Z,94732.00
2024-02-29T11:44:23.981Z,94728.00
2024-02-29T11:45:24.068Z,94727.00
2024-02-29T11:46:23.979Z,94725.00
2024-02-29T11:47:23.940Z,94724.00
2024-02-29T11:48:23.939Z,94723.00
2024-02-29T11:49:24.093Z,94725.00
2024-02-29T11:50:24.412Z,94721.00
2024-02-29T11:51:23.947Z,94721.00
2024-02-29T11:52:23.992Z,94720.00
2024-02-29T11:53:23.948Z,94720.00
2024-02-29T11:54:26.638Z,94717.00
2024-02-29T11:55:24.155Z,94716.00
2024-02-29T11:56:24.421Z,94715.00
2024-02-29T11:57:23.954Z,94712.00
2024-02-29T11:58:24.067Z,94710.00
2024-02-29T11:59:23.951Z,94707.00
2024-02-29T12:00:23.968Z,94705.00
2024-02-29T12:01:24.065Z,94704.00
2024-02-29T12:02:23.960Z,94702.00
2024-02-29T12:03:23.972Z,94699.00
2024-02-29T12:04:24.040Z,94698.00
2024-02-29T12:05:23.962Z,94696.00
2024-02-29T12:06:23.964Z,94695.00
2024-02-29T12:07:24.057Z,94691.00
2024-02-29T12:08:23.968Z,94689.00
2024-02-29T12:09:23.983Z,94683.00
2024-02-29T12:10:23.978Z,94678.00
2024-02-29T12:11:24.491Z,94674.00
2024-02-29T12:12:24.001Z,94668.00
2024-02-29T12:13:24.040Z,94667.00
2024-02-29T12:14:24.051Z,94665.00
2024-02-29T12:15:24.446Z,94658.00
2024-02-29T12:16:23.977Z,94656.00
2024-02-29T12:17:24.024Z,94656.00
2024-02-29T12:18:24.036Z,94653.00
2024-02-29T12:19:24.060Z,94652.00
2024-02-29T12:20:23.992Z,94648.00
2024-02-29T12:21:23.981Z,94643.00
2024-02-29T12:22:24.066Z,94640.00
2024-02-29T12:23:24.446Z,94637.00
2024-02-29T12:24:24.063Z,94635.00
2024-02-29T12:25:24.142Z,94633.00
2024-02-29T12:26:24.120Z,94630.00
2024-02-29T12:27:24.274Z,94628.00
2024-02-29T12:28:24.280Z,94625.00
2024-02-29T12:29:24.272Z,94623.00
2024-02-29T12:30:24.247Z,94623.00
2024-02-29T12:31:24.303Z,94622.00
2024-02-29T12:32:24.280Z,94619.00
2024-02-29T12:33:27.276Z,94614.00
2024-02-29T12:34:24.619Z,94613.00
2024-02-29T12:35:24.570Z,94610.00
2024-02-29T12:36:24.636Z,94610.00
2024-02-29T12:37:24.668Z,94607.00
2024-02-29T12:38:24.700Z,94607.00
2024-02-29T12:39:24.766Z,94604.00
2024-02-29T12:40:24.979Z,94601.00
2024-02-29T12:41:24.913Z,94597.00
2024-02-29T12:42:25.027Z,94594.00